LETO/TOJ METAR and TAF weather

Enter ICAO airport designator
Station Type Date Time Source
LETO METAR 2019/04/26 03:00 UTC NOAA

LETO 260300Z 21009KT 9999 SCT050 08/05 Q1021 NOSIG


Station Type Date Time Source
LETO Decoded METAR 2019/04/26 03:00 UTC NOAA

Madrid / Torrejon, Spain (LETO) 40-29N 003-27W 611M
Apr 25, 2019 - 11:00 PM EDT / 2019.04.26 0300 UTC
Wind: from the SSW (210 degrees) at 10 MPH (9 KT):0
Visibility: greater than 7 mile(s):0
Sky conditions: partly cloudy
Temperature: 46 F (8 C)
Dew Point: 41 F (5 C)
Relative Humidity: 81%
Pressure (altimeter): 30.15 in. Hg (1021 hPa)
ob: LETO 260300Z 21009KT 9999 SCT050 08/05 Q1021 NOSIG
cycle: 3

Station Type Date Time Source
LETO TAF 2019/04/25 18:27 UTC NOAA

TAF LETO 251700Z 2518/2618 23017KT 9999 SCT025 SCT040 TX17/2615Z TN04/2606Z
TEMPO 2518/2520 23017G27KT PROB30
TEMPO 2518/2519 23020G37KT PROB30
TEMPO 2522/2610 4000 BR BKN010

Example: see airport list